Time;durP1;ratioP1;P1;durP2;ratioP2;P2;SDS_P1;SDS_P2;PMS_P1;PMS_P2;Temp;Humidity;BMP_temperature;BMP_pressure;BME280_temperature;BME280_humidity;BME280_pressure;Samples;Min_cycle;Max_cycle;Signal;HPM_P1;HPM_P2
2022/05/12 00:01:30;;;;;;;;;;;;;;;18.99;65.32;101206.41;7400006;19;2159;-36
2022/05/12 00:04:00;;;;;;;;;;;;;;;18.97;65.17;101200.31;7404402;19;1781;-36
2022/05/12 00:06:29;;;;;;;;;;;;;;;18.99;65.41;101206.41;7400867;19;1834;-36
2022/05/12 00:08:58;;;;;;;;;;;;;;;18.97;64.75;101197.63;7404204;19;2246;-36
2022/05/12 00:11:30;;;;;;;;;;;;;;;18.97;64.92;101192.28;7403622;19;1565;-36
2022/05/12 00:14:02;;;;;;;;;;;;;;;18.98;64.77;101180.59;7401939;19;1863;-37
2022/05/12 00:16:45;;;;;;;;;;;;;;;19.00;65.09;101201.88;7404646;19;1801;-36
2022/05/12 00:19:26;;;;;;;;;;;;;;;18.99;64.70;101211.75;7403590;19;1971;-36
2022/05/12 00:21:54;;;;;;;;;;;;;;;18.98;65.13;101199.34;7402698;19;1758;-36
2022/05/12 00:24:23;;;;;;;;;;;;;;;18.98;65.21;101204.72;7402904;19;1768;-36
2022/05/12 00:26:52;;;;;;;;;;;;;;;18.99;65.28;101203.72;7403111;19;1675;-36
2022/05/12 00:29:23;;;;;;;;;;;;;;;18.99;65.03;101198.34;7403097;19;1598;-36
2022/05/12 00:32:15;;;;;;;;;;;;;;;18.96;65.25;101200.44;7402745;19;1480;-36
2022/05/12 00:34:47;;;;;;;;;;;;;;;18.98;64.75;101198.47;7402212;19;1793;-36
2022/05/12 00:37:19;;;;;;;;;;;;;;;18.96;64.84;101203.97;7404052;19;1592;-36
2022/05/12 00:39:50;;;;;;;;;;;;;;;18.95;65.01;101209.47;7403459;19;1992;-36
2022/05/12 00:42:23;;;;;;;;;;;;;;;18.92;64.84;101188.25;7402693;19;2075;-37
2022/05/12 00:44:54;;;;;;;;;;;;;;;19.00;64.80;101202.75;7402323;19;1842;-36
2022/05/12 00:47:22;;;;;;;;;;;;;;;18.95;65.01;101215.66;7403422;19;1585;-36
2022/05/12 00:49:58;;;;;;;;;;;;;;;18.93;65.31;101198.84;7402326;19;1747;-36
2022/05/12 00:52:29;;;;;;;;;;;;;;;18.96;65.12;101221.88;7402928;19;1905;-36
2022/05/12 00:55:02;;;;;;;;;;;;;;;18.94;65.03;101208.63;7403652;19;988;-36
2022/05/12 00:57:37;;;;;;;;;;;;;;;18.95;65.24;101221.03;7402359;19;1948;-36
2022/05/12 01:00:09;;;;;;;;;;;;;;;18.94;64.79;101213.09;7402503;19;2071;-36
2022/05/12 01:02:47;;;;;;;;;;;;;;;18.95;64.91;101221.03;7399768;19;1596;-36
2022/05/12 01:05:30;;;;;;;;;;;;;;;18.93;64.59;101204.22;7400774;19;1530;-36
2022/05/12 01:08:13;;;;;;;;;;;;;;;18.94;64.76;101207.75;7399731;19;1708;-36
2022/05/12 01:10:46;;;;;;;;;;;;;;;18.94;64.90;101224.69;7401366;19;1706;-36
2022/05/12 01:13:25;;;;;;;;;;;;;;;18.93;64.68;101212.25;7400776;19;1870;-36
2022/05/12 01:16:08;;;;;;;;;;;;;;;18.92;64.84;101209.69;7401430;19;1895;-36
2022/05/12 01:18:44;;;;;;;;;;;;;;;18.91;64.46;101208.84;7399932;19;1700;-36
2022/05/12 01:21:14;;;;;;;;;;;;;;;18.94;64.81;101210.41;7401341;19;1912;-36
2022/05/12 01:23:49;;;;;;;;;;;;;;;18.91;64.94;101214.22;7400335;19;1913;-36
2022/05/12 01:26:19;;;;;;;;;;;;;;;18.93;64.76;101219.44;7402459;19;1675;-36
2022/05/12 01:28:49;;;;;;;;;;;;;;;18.92;64.80;101212.38;7401191;19;2072;-36
2022/05/12 01:31:20;;;;;;;;;;;;;;;18.90;64.67;101231.28;7401185;19;1809;-36
2022/05/12 01:33:53;;;;;;;;;;;;;;;18.92;65.02;101223.09;7398664;19;1861;-36
2022/05/12 01:36:26;;;;;;;;;;;;;;;18.89;64.75;101226.88;7401083;19;1591;-36
2022/05/12 01:38:59;;;;;;;;;;;;;;;18.91;64.78;101216.03;7400238;19;1830;-36
2022/05/12 01:41:28;;;;;;;;;;;;;;;18.88;64.87;101215.31;7401378;19;1574;-36
2022/05/12 01:44:04;;;;;;;;;;;;;;;18.91;64.60;101232.97;7400156;19;1565;-36
2022/05/12 01:46:42;;;;;;;;;;;;;;;18.90;64.63;101211.66;7399821;19;1660;-36
2022/05/12 01:49:15;;;;;;;;;;;;;;;18.91;64.46;101214.22;7401188;19;1932;-36
2022/05/12 01:51:45;;;;;;;;;;;;;;;18.90;64.67;101220.56;7400685;19;1835;-36
2022/05/12 01:54:20;;;;;;;;;;;;;;;18.90;64.45;101200.94;7399731;19;1849;-36
2022/05/12 01:56:50;;;;;;;;;;;;;;;18.90;64.69;101207.16;7400991;19;1728;-36
2022/05/12 01:59:23;;;;;;;;;;;;;;;18.88;64.45;101225.19;7401126;19;1626;-37
2022/05/12 02:01:52;;;;;;;;;;;;;;;18.92;64.53;101241.84;7387603;19;3425;-57
2022/05/12 02:04:21;;;;;;;;;;;;;;;18.91;64.16;101230.28;7398487;19;1754;-60
2022/05/12 02:06:50;;;;;;;;;;;;;;;18.88;64.16;101233.25;7401646;19;1737;-61
2022/05/12 02:09:21;;;;;;;;;;;;;;;18.90;64.53;101239.31;7401840;19;1545;-58
2022/05/12 02:11:49;;;;;;;;;;;;;;;18.87;64.50;101237.72;7402454;19;1499;-58
2022/05/12 02:14:18;;;;;;;;;;;;;;;18.91;64.25;101251.72;7400189;19;1854;-60
2022/05/12 02:16:46;;;;;;;;;;;;;;;18.90;64.11;101247.38;7403477;19;1613;-57
2022/05/12 02:19:14;;;;;;;;;;;;;;;18.87;64.50;101250.28;7402118;19;1766;-61
2022/05/12 02:21:43;;;;;;;;;;;;;;;18.87;64.28;101239.56;7401019;19;1543;-58
2022/05/12 02:24:11;;;;;;;;;;;;;;;18.86;64.30;101236.03;7399673;19;1334;-59
2022/05/12 02:26:42;;;;;;;;;;;;;;;18.93;64.15;101254.28;7402537;19;1590;-57
2022/05/12 02:29:10;;;;;;;;;;;;;;;18.86;64.39;101254.78;7403301;19;1339;-61
2022/05/12 02:31:39;;;;;;;;;;;;;;;18.90;63.91;101247.38;7407819;19;1419;-61
2022/05/12 02:34:07;;;;;;;;;;;;;;;18.90;64.36;101262.56;7407607;19;1868;-61
2022/05/12 02:36:35;;;;;;;;;;;;;;;18.87;64.19;101261.84;7409112;19;1628;-58
2022/05/12 02:39:04;;;;;;;;;;;;;;;18.87;64.09;101255.63;7409047;19;1492;-58
2022/05/12 02:41:32;;;;;;;;;;;;;;;18.85;64.21;101257.59;7407828;19;1311;-57
2022/05/12 02:44:03;;;;;;;;;;;;;;;18.88;64.12;101263.56;7408760;19;1453;-60
2022/05/12 02:46:31;;;;;;;;;;;;;;;18.85;64.11;101252.22;7408512;19;1703;-58
2022/05/12 02:49:00;;;;;;;;;;;;;;;18.85;64.42;101263.78;7407463;19;1353;-60
2022/05/12 02:51:28;;;;;;;;;;;;;;;18.84;64.02;101266.59;7407812;19;1326;-61
2022/05/12 02:53:56;;;;;;;;;;;;;;;18.84;64.34;101266.59;7406432;19;1852;-61
2022/05/12 02:56:26;;;;;;;;;;;;;;;18.86;64.49;101265.50;7407280;19;1727;-61
2022/05/12 02:58:54;;;;;;;;;;;;;;;18.83;64.25;101273.78;7407101;19;1378;-58
2022/05/12 03:01:25;;;;;;;;;;;;;;;18.84;64.16;101271.94;7407303;19;1462;-58
2022/05/12 03:03:53;;;;;;;;;;;;;;;18.82;64.21;101268.53;7407340;19;1320;-61
2022/05/12 03:06:21;;;;;;;;;;;;;;;18.83;64.47;101271.09;7408529;19;1453;-61
2022/05/12 03:08:50;;;;;;;;;;;;;;;18.83;64.33;101264.91;7404945;19;1411;-61
2022/05/12 03:11:18;;;;;;;;;;;;;;;18.84;64.11;101282.66;7406518;19;1348;-58
2022/05/12 03:13:46;;;;;;;;;;;;;;;18.83;64.31;101283.66;7406228;19;1872;-58
2022/05/12 03:16:16;;;;;;;;;;;;;;;18.81;64.15;101277.56;7406761;19;1361;-58
2022/05/12 03:18:51;;;;;;;;;;;;;;;18.81;64.37;101285.59;7406538;19;1430;-61
2022/05/12 03:21:20;;;;;;;;;;;;;;;18.82;64.17;101290.84;7406348;19;1510;-59
2022/05/12 03:23:49;;;;;;;;;;;;;;;18.83;64.46;101286.31;7407472;19;1376;-58
2022/05/12 03:26:18;;;;;;;;;;;;;;;18.81;64.59;101288.28;7407699;19;1791;-62
2022/05/12 03:28:47;;;;;;;;;;;;;;;18.84;64.52;101283.53;7406698;19;1364;-57
2022/05/12 03:31:15;;;;;;;;;;;;;;;18.82;64.39;101284.59;7406714;19;1419;-58
2022/05/12 03:33:48;;;;;;;;;;;;;;;18.84;64.23;101282.66;7405884;19;1854;-62
2022/05/12 03:36:18;;;;;;;;;;;;;;;18.87;64.55;101290.47;7407456;19;1447;-62
2022/05/12 03:38:46;;;;;;;;;;;;;;;18.87;64.43;101288.63;7405109;19;1358;-58
2022/05/12 03:41:14;;;;;;;;;;;;;;;18.87;64.20;101293.16;7406205;19;1324;-58
2022/05/12 03:46:24;;;;;;;;;;;;;;;18.90;64.46;101290.25;7406090;19;1681;-62
2022/05/12 03:48:54;;;;;;;;;;;;;;;18.88;64.76;101295.72;7407187;19;1542;-58
2022/05/12 03:51:23;;;;;;;;;;;;;;;18.94;64.51;101307.78;7405883;19;1421;-62
2022/05/12 03:53:51;;;;;;;;;;;;;;;18.94;64.23;101286.34;7404935;19;1842;-62
2022/05/12 03:56:20;;;;;;;;;;;;;;;18.98;63.93;101303.00;7406730;19;1458;-61
2022/05/12 03:58:48;;;;;;;;;;;;;;;18.98;64.26;101295.84;7405770;19;1730;-58
2022/05/12 04:01:16;;;;;;;;;;;;;;;18.99;64.33;101296.69;7402131;19;1610;-61
2022/05/12 04:03:45;;;;;;;;;;;;;;;19.01;64.37;101300.94;7406327;19;1237;-62
2022/05/12 04:06:16;;;;;;;;;;;;;;;19.03;63.99;101312.38;7407475;19;1419;-58
2022/05/12 04:08:44;;;;;;;;;;;;;;;19.04;64.20;101297.19;7405459;19;1536;-62
2022/05/12 04:11:12;;;;;;;;;;;;;;;19.06;64.13;101305.94;7405946;19;1508;-58
2022/05/12 04:13:41;;;;;;;;;;;;;;;19.14;64.10;101310.66;7406122;19;1865;-58
2022/05/12 04:16:09;;;;;;;;;;;;;;;19.13;63.97;101296.41;7406369;19;1435;-58
2022/05/12 04:18:37;;;;;;;;;;;;;;;19.16;63.83;101304.22;7404096;19;1591;-58
2022/05/12 04:21:06;;;;;;;;;;;;;;;19.20;63.92;101299.44;7405781;19;1516;-61
2022/05/12 04:23:38;;;;;;;;;;;;;;;19.21;64.01;101295.81;7406323;19;1527;-57
2022/05/12 04:26:06;;;;;;;;;;;;;;;19.23;64.10;101321.50;7405107;19;1619;-58
2022/05/12 04:28:34;;;;;;;;;;;;;;;19.27;63.72;101309.56;7403713;19;1527;-58
2022/05/12 04:31:03;;;;;;;;;;;;;;;19.27;63.88;101312.25;7404702;19;1616;-61
2022/05/12 04:36:13;;;;;;;;;;;;;;;19.32;63.69;101327.09;7406064;19;1654;-58
2022/05/12 04:38:44;;;;;;;;;;;;;;;19.34;63.87;101315.31;7403787;19;1496;-61
2022/05/12 04:41:12;;;;;;;;;;;;;;;19.38;63.57;101318.59;7404839;19;1626;-61
2022/05/12 04:43:41;;;;;;;;;;;;;;;19.39;63.59;101325.66;7404404;19;1592;-58
2022/05/12 04:46:09;;;;;;;;;;;;;;;19.46;63.66;101327.72;7405150;19;1544;-58
2022/05/12 04:48:37;;;;;;;;;;;;;;;19.50;63.51;101330.13;7404126;19;1555;-62
2022/05/12 04:51:06;;;;;;;;;;;;;;;19.55;63.06;101322.56;7405091;19;1439;-58
2022/05/12 04:53:34;;;;;;;;;;;;;;;19.59;63.07;101322.19;7402543;19;1614;-63
2022/05/12 04:56:05;;;;;;;;;;;;;;;19.73;63.07;101331.81;7401968;19;1842;-57
2022/05/12 04:58:34;;;;;;;;;;;;;;;19.75;62.93;101323.63;7404618;19;1524;-62
2022/05/12 05:01:02;;;;;;;;;;;;;;;19.81;62.62;101333.84;7402956;19;1653;-61
2022/05/12 05:03:30;;;;;;;;;;;;;;;19.84;62.96;101334.47;7403462;19;1311;-62
2022/05/12 05:05:59;;;;;;;;;;;;;;;19.86;62.86;101329.81;7403512;19;1574;-62
2022/05/12 05:08:28;;;;;;;;;;;;;;;19.91;62.71;101336.63;7405031;19;1563;-62
2022/05/12 05:10:56;;;;;;;;;;;;;;;19.91;62.95;101326.75;7405284;19;1602;-59
2022/05/12 05:13:27;;;;;;;;;;;;;;;19.95;62.48;101333.56;7402539;19;1568;-58
2022/05/12 05:15:56;;;;;;;;;;;;;;;19.94;63.05;101323.81;7401459;19;1855;-60
2022/05/12 05:18:25;;;;;;;;;;;;;;;19.98;62.99;101330.63;7404188;19;1330;-62
2022/05/12 05:20:53;;;;;;;;;;;;;;;20.00;63.05;101341.25;7403632;19;1460;-62
2022/05/12 05:23:22;;;;;;;;;;;;;;;20.02;63.20;101339.28;7402767;19;1327;-58
2022/05/12 05:25:51;;;;;;;;;;;;;;;20.01;63.19;101334.88;7403592;19;1899;-62
2022/05/12 05:28:19;;;;;;;;;;;;;;;20.03;63.32;101344.53;7403583;19;1539;-58
2022/05/12 05:30:50;;;;;;;;;;;;;;;20.00;63.65;101349.31;7403826;19;1306;-62
2022/05/12 05:33:20;;;;;;;;;;;;;;;20.04;63.33;101346.22;7401670;19;1600;-58
2022/05/12 05:35:48;;;;;;;;;;;;;;;20.11;63.32;101349.22;7400867;19;1866;-66
2022/05/12 05:38:17;;;;;;;;;;;;;;;20.26;63.93;101353.31;7401556;19;1254;-59
2022/05/12 05:40:45;;;;;;;;;;;;;;;20.27;63.43;101364.91;7402475;19;1559;-63
2022/05/12 05:43:13;;;;;;;;;;;;;;;20.27;62.98;101349.69;7401053;19;1678;-59
2022/05/12 05:45:42;;;;;;;;;;;;;;;20.25;63.54;101348.94;7399978;19;1613;-62
2022/05/12 05:48:13;;;;;;;;;;;;;;;20.28;63.51;101355.88;7400068;19;1431;-58
2022/05/12 05:53:27;;;;;;;;;;;;;;;20.23;63.78;101348.22;7403538;19;1300;-62
2022/05/12 05:55:56;;;;;;;;;;;;;;;20.24;63.92;101344.53;7401473;19;1861;-58
2022/05/12 05:58:25;;;;;;;;;;;;;;;20.24;63.95;101349.91;7399702;19;1620;-59
2022/05/12 06:00:54;;;;;;;;;;;;;;;20.39;63.67;101352.28;7400691;19;1355;-57
2022/05/12 06:03:26;;;;;;;;;;;;;;;20.46;63.78;101365.06;7403201;19;1286;-58
2022/05/12 06:05:55;;;;;;;;;;;;;;;20.40;63.79;101349.47;7410274;19;1363;-59
2022/05/12 06:08:24;;;;;;;;;;;;;;;20.43;63.67;101348.34;7410950;19;1326;-59
2022/05/12 06:10:52;;;;;;;;;;;;;;;20.46;64.16;101353.47;7411549;19;1673;-59
2022/05/12 06:13:21;;;;;;;;;;;;;;;20.42;64.18;101342.13;7410617;19;1746;-55
2022/05/12 06:15:50;;;;;;;;;;;;;;;20.50;64.12;101349.53;7407069;19;1894;-60
2022/05/12 06:18:19;;;;;;;;;;;;;;;20.42;63.85;101355.56;7410626;19;1548;-62
2022/05/12 06:20:50;;;;;;;;;;;;;;;20.39;64.07;101330.78;7407513;19;1674;-61
2022/05/12 06:23:20;;;;;;;;;;;;;;;20.46;64.10;101358.84;7409325;19;1727;-57
2022/05/12 06:25:48;;;;;;;;;;;;;;;20.45;63.98;101354.44;7407459;19;1690;-59
2022/05/12 06:28:16;;;;;;;;;;;;;;;20.47;63.63;101330.97;7407995;19;1639;-58
2022/05/12 06:30:45;;;;;;;;;;;;;;;20.46;63.31;101354.31;7408234;19;1474;-57
2022/05/12 06:33:17;;;;;;;;;;;;;;;20.44;63.28;101340.16;7408878;19;1321;-60
2022/05/12 06:35:47;;;;;;;;;;;;;;;20.43;62.85;101348.34;7408340;19;1861;-59
2022/05/12 06:38:18;;;;;;;;;;;;;;;20.39;62.60;101344.22;7410332;19;1508;-59
2022/05/12 06:40:46;;;;;;;;;;;;;;;20.38;62.63;101358.66;7409037;19;1630;-59
2022/05/12 06:43:14;;;;;;;;;;;;;;;20.39;62.13;101355.84;7409127;19;1841;-60
2022/05/12 06:45:43;;;;;;;;;;;;;;;20.39;62.15;101354.97;7409218;19;1520;-57
2022/05/12 06:48:11;;;;;;;;;;;;;;;20.40;61.71;101349.47;7410265;19;1590;-57
2022/05/12 06:50:40;;;;;;;;;;;;;;;20.38;61.29;101345.22;7410583;19;1032;-57
2022/05/12 06:53:09;;;;;;;;;;;;;;;20.44;61.28;101352.75;7407176;19;1690;-58
2022/05/12 06:55:40;;;;;;;;;;;;;;;20.45;61.11;101346.38;7407686;19;1854;-58
2022/05/12 06:58:08;;;;;;;;;;;;;;;20.45;61.06;101360.69;7407762;19;1536;-59
2022/05/12 07:00:37;;;;;;;;;;;;;;;20.42;60.96;101352.03;7407631;19;1535;-59
2022/05/12 07:03:06;;;;;;;;;;;;;;;20.46;60.62;101353.47;7408793;19;1208;-58
2022/05/12 07:05:35;;;;;;;;;;;;;;;20.43;60.25;101354.59;7407628;19;1709;-59
2022/05/12 07:08:04;;;;;;;;;;;;;;;20.49;60.38;101347.81;7408473;19;1690;-57
2022/05/12 07:10:32;;;;;;;;;;;;;;;20.45;60.45;101351.75;7407233;19;1689;-57
2022/05/12 07:13:03;;;;;;;;;;;;;;;20.46;60.20;101348.94;7408077;19;1663;-58
2022/05/12 07:15:31;;;;;;;;;;;;;;;20.52;59.50;101352.94;7405076;19;1861;-57
2022/05/12 07:18:00;;;;;;;;;;;;;;;20.50;59.84;101362.97;7407807;19;1539;-57
2022/05/12 07:28:41;;;;;;;;;;;;;;;20.46;59.77;101343.56;7408358;19;1576;-58
2022/05/12 07:31:10;;;;;;;;;;;;;;;20.47;59.51;101339.03;7406162;19;1536;-57
2022/05/12 07:33:40;;;;;;;;;;;;;;;20.46;59.72;101358.84;7407041;19;1998;-58
2022/05/12 07:36:10;;;;;;;;;;;;;;;20.46;59.53;101348.09;7404964;19;1838;-57
2022/05/12 07:38:38;;;;;;;;;;;;;;;20.46;59.05;101335.50;7406739;19;1524;-57
2022/05/12 07:41:09;;;;;;;;;;;;;;;20.48;59.13;101343.44;7407787;19;1396;-60
2022/05/12 07:43:41;;;;;;;;;;;;;;;20.48;59.07;101346.13;7408512;19;1642;-58
2022/05/12 07:46:10;;;;;;;;;;;;;;;20.47;58.95;101339.03;7407447;19;1266;-59
2022/05/12 07:48:39;;;;;;;;;;;;;;;20.50;58.78;101328.03;7407301;19;1634;-59
2022/05/12 07:51:07;;;;;;;;;;;;;;;20.55;58.81;101352.69;7409309;19;943;-59
2022/05/12 07:53:37;;;;;;;;;;;;;;;20.52;58.41;101338.66;7404054;19;1648;-59
2022/05/12 07:56:06;;;;;;;;;;;;;;;20.52;58.96;101344.88;7405495;19;1855;-58
2022/05/12 07:58:34;;;;;;;;;;;;;;;20.49;58.51;101352.34;7405273;19;1579;-59
2022/05/12 08:01:05;;;;;;;;;;;;;;;20.50;58.50;101356.75;7406231;19;1617;-58
2022/05/12 08:03:34;;;;;;;;;;;;;;;20.48;58.45;101338.06;7405406;19;1266;-60
2022/05/12 08:06:02;;;;;;;;;;;;;;;20.48;58.00;101338.06;7406013;19;1552;-58
2022/05/12 08:08:31;;;;;;;;;;;;;;;20.49;57.76;101355.03;7403734;19;1650;-58
2022/05/12 08:10:59;;;;;;;;;;;;;;;20.52;58.29;101355.63;7407069;19;1527;-60
2022/05/12 08:13:27;;;;;;;;;;;;;;;20.50;58.17;101340.63;7404476;19;1777;-58
2022/05/12 08:15:57;;;;;;;;;;;;;;;20.48;58.28;101326.50;7404606;19;1867;-58
2022/05/12 08:18:28;;;;;;;;;;;;;;;20.44;58.29;101329.41;7405783;19;1748;-60
2022/05/12 08:20:57;;;;;;;;;;;;;;;20.44;58.54;101345.53;7406490;19;1456;-57
2022/05/12 08:23:25;;;;;;;;;;;;;;;20.49;58.14;101347.81;7404248;19;1632;-60
2022/05/12 08:25:54;;;;;;;;;;;;;;;20.42;58.63;101336.75;7406072;19;1531;-57
2022/05/12 08:28:24;;;;;;;;;;;;;;;20.41;58.47;101335.06;7407052;19;1527;-59
2022/05/12 08:30:53;;;;;;;;;;;;;;;20.40;58.24;101327.13;7406483;19;1874;-59
2022/05/12 08:33:21;;;;;;;;;;;;;;;20.40;58.20;101327.13;7406208;19;1249;-59
2022/05/12 08:35:53;;;;;;;;;;;;;;;20.41;58.60;101334.19;7406161;19;1855;-59
2022/05/12 08:38:22;;;;;;;;;;;;;;;20.42;58.23;101325.16;7404788;19;1500;-58
2022/05/12 08:40:53;;;;;;;;;;;;;;;20.40;58.09;101322.59;7405670;19;1598;-59
2022/05/12 08:43:24;;;;;;;;;;;;;;;20.43;58.26;101316.13;7406795;19;1523;-58
2022/05/12 08:45:53;;;;;;;;;;;;;;;20.38;58.47;101323.72;7405082;19;1427;-58
2022/05/12 08:48:22;;;;;;;;;;;;;;;20.37;58.41;101324.69;7405489;19;1511;-57
2022/05/12 08:50:55;;;;;;;;;;;;;;;20.39;58.60;101328.09;7406717;19;1003;-59
2022/05/12 08:53:25;;;;;;;;;;;;;;;20.56;58.60;101315.94;7401793;19;1749;-59
2022/05/12 08:55:55;;;;;;;;;;;;;;;20.62;57.98;101315.44;7404175;19;1859;-56
2022/05/12 08:58:25;;;;;;;;;;;;;;;20.65;57.67;101320.50;7404823;19;1688;-60
2022/05/12 09:00:59;;;;;;;;;;;;;;;20.64;57.98;101321.53;7403012;19;1452;-57
2022/05/12 09:03:31;;;;;;;;;;;;;;;20.69;57.99;101326.47;7404648;19;1429;-62
2022/05/12 09:06:04;;;;;;;;;;;;;;;20.73;58.69;101317.16;7404828;19;1390;-59
2022/05/12 09:08:36;;;;;;;;;;;;;;;20.73;59.10;101319.84;7403875;19;1643;-60
2022/05/12 09:11:09;;;;;;;;;;;;;;;20.71;59.41;101321.81;7403876;19;1430;-65
2022/05/12 09:13:41;;;;;;;;;;;;;;;20.21;59.17;101280.38;7403716;19;1823;-61
2022/05/12 09:16:13;;;;;;;;;;;;;;;20.71;59.34;101324.50;7403076;19;1866;-60
2022/05/12 09:18:42;;;;;;;;;;;;;;;20.78;59.07;101314.94;7402925;19;1481;-60
2022/05/12 09:21:14;;;;;;;;;;;;;;;20.84;58.17;101303.66;7403591;19;1434;-57
2022/05/12 09:23:43;;;;;;;;;;;;;;;20.66;58.14;101311.47;7401560;19;1477;-60
2022/05/12 09:26:26;;;;;;;;;;;;;;;20.58;59.00;101316.66;7403132;19;1698;-59
2022/05/12 09:28:55;;;;;;;;;;;;;;;20.48;59.19;101305.84;7403514;19;1686;-58
2022/05/12 09:31:23;;;;;;;;;;;;;;;20.47;59.20;101296.06;7403473;19;1513;-58
2022/05/12 09:33:54;;;;;;;;;;;;;;;20.40;59.77;101308.34;7402795;19;1274;-60
2022/05/12 09:36:32;;;;;;;;;;;;;;;20.33;59.88;101315.19;7403089;19;1871;-60
2022/05/12 09:39:00;;;;;;;;;;;;;;;20.34;60.22;101311.56;7404104;19;1647;-59
2022/05/12 09:41:35;;;;;;;;;;;;;;;20.33;59.91;101293.72;7410375;19;1562;-60
2022/05/12 09:44:16;;;;;;;;;;;;;;;20.30;60.35;101302.06;7410904;19;1366;-57
2022/05/12 09:46:44;;;;;;;;;;;;;;;20.27;60.08;101295.97;7411297;19;1499;-59
2022/05/12 09:49:20;;;;;;;;;;;;;;;20.29;60.19;101308.38;7409449;19;1691;-58
2022/05/12 09:51:52;;;;;;;;;;;;;;;20.31;60.08;101298.38;7411539;19;1675;-58
2022/05/12 09:54:26;;;;;;;;;;;;;;;20.25;60.22;101289.88;7411316;19;1523;-58
2022/05/12 09:57:00;;;;;;;;;;;;;;;20.21;60.15;101291.13;7408833;19;1834;-58
2022/05/12 09:59:30;;;;;;;;;;;;;;;20.20;60.24;101288.56;7410061;19;1339;-58
2022/05/12 10:01:59;;;;;;;;;;;;;;;20.22;60.10;101286.59;7409483;19;1555;-58
2022/05/12 10:10:04;;;;;;;;;;;;;;;20.20;60.50;101278.66;7411235;19;1345;-57
2022/05/12 10:12:36;;;;;;;;;;;;;;;20.19;60.30;101278.78;7410124;19;1489;-59
2022/05/12 10:15:06;;;;;;;;;;;;;;;20.19;60.60;101281.47;7410280;19;1491;-60
2022/05/12 10:17:38;;;;;;;;;;;;;;;20.16;60.53;101277.22;7406852;19;1845;-58
2022/05/12 10:20:09;;;;;;;;;;;;;;;20.19;60.97;101276.09;7407725;19;1484;-58
2022/05/12 10:22:44;;;;;;;;;;;;;;;20.13;60.71;101272.09;7409031;19;1362;-58
2022/05/12 10:25:19;;;;;;;;;;;;;;;20.15;60.68;101270.13;7409626;19;1710;-59
2022/05/12 10:27:52;;;;;;;;;;;;;;;20.12;60.92;101251.59;7410252;19;1532;-58
2022/05/12 10:33:23;;;;;;;;;;;;;;;20.09;60.99;101251.84;7406086;19;1801;-81
2022/05/12 10:36:00;;;;;;;;;;;;;;;20.10;60.73;101242.00;7409597;19;1829;-81
2022/05/12 10:38:37;;;;;;;;;;;;;;;20.11;60.71;101252.56;7411038;19;1376;-81
2022/05/12 10:41:11;;;;;;;;;;;;;;;20.08;60.95;101247.50;7411863;19;1566;-81
2022/05/12 10:43:50;;;;;;;;;;;;;;;20.14;61.10;101252.34;7408882;19;1395;-81
2022/05/12 10:46:20;;;;;;;;;;;;;;;20.03;61.34;101238.97;7411149;19;1365;-82
2022/05/12 10:48:52;;;;;;;;;;;;;;;20.06;60.92;101239.56;7410529;19;1149;-82
2022/05/12 10:51:24;;;;;;;;;;;;;;;20.03;61.21;101222.84;7409032;19;1274;-81
2022/05/12 10:54:01;;;;;;;;;;;;;;;20.08;61.17;101236.75;7408047;19;1332;-82
2022/05/12 10:56:34;;;;;;;;;;;;;;;20.06;61.24;101250.28;7410254;19;1848;-82
2022/05/12 10:59:15;;;;;;;;;;;;;;;20.03;61.42;101244.31;7411121;19;1524;-81
2022/05/12 11:01:46;;;;;;;;;;;;;;;20.01;61.12;101228.34;7409404;19;1542;-80
2022/05/12 11:04:16;;;;;;;;;;;;;;;20.04;61.10;101229.94;7412108;19;1130;-82
2022/05/12 11:06:47;;;;;;;;;;;;;;;20.00;61.41;101234.72;7410420;19;1690;-82
2022/05/12 11:09:27;;;;;;;;;;;;;;;20.04;61.21;101238.00;7410170;19;1359;-81
2022/05/12 11:11:58;;;;;;;;;;;;;;;20.04;61.39;101203.94;7410621;19;1443;-82
2022/05/12 11:14:31;;;;;;;;;;;;;;;20.02;61.09;101213.13;7411190;19;1374;-81
2022/05/12 11:17:03;;;;;;;;;;;;;;;20.10;61.35;101228.56;7409638;19;1852;-82
2022/05/12 11:19:31;;;;;;;;;;;;;;;20.08;61.15;101215.28;7408581;19;1292;-83
2022/05/12 11:22:09;;;;;;;;;;;;;;;20.05;61.40;101218.19;7410399;19;1359;-83
2022/05/12 11:24:46;;;;;;;;;;;;;;;20.06;61.29;101238.72;7409918;19;1784;-82
2022/05/12 11:27:21;;;;;;;;;;;;;;;20.05;61.27;101221.75;7411748;19;1374;-82
2022/05/12 11:29:57;;;;;;;;;;;;;;;20.03;61.32;101214.78;7409392;19;1714;-82
2022/05/12 11:35:39;;;;;;;;;;;;;;;20.04;61.33;101195.03;7405074;19;1315;-81
2022/05/12 11:38:10;;;;;;;;;;;;;;;20.05;61.61;101194.91;7404333;19;1842;-81
2022/05/12 11:40:55;;;;;;;;;;;;;;;20.05;61.41;101196.72;7406830;19;1425;-81
2022/05/12 11:46:23;;;;;;;;;;;;;;;20.03;61.61;101207.63;7408345;19;1443;-81
2022/05/12 11:48:58;;;;;;;;;;;;;;;20.03;61.97;101175.41;7409694;19;1605;-83
2022/05/12 11:51:30;;;;;;;;;;;;;;;20.10;61.63;101177.56;7408110;19;1547;-81
2022/05/12 11:54:01;;;;;;;;;;;;;;;20.08;61.71;101177.69;7408902;19;1798;-81
2022/05/12 11:56:42;;;;;;;;;;;;;;;20.04;61.71;101178.94;7407358;19;1816;-80
2022/05/12 11:59:16;;;;;;;;;;;;;;;20.01;61.52;101181.88;7408268;19;1293;-82
2022/05/12 12:01:52;;;;;;;;;;;;;;;19.98;61.75;101160.66;7403849;19;1511;-82
2022/05/12 12:04:40;;;;;;;;;;;;;;;20.03;61.63;101190.63;7407249;19;1621;-83
2022/05/12 12:07:09;;;;;;;;;;;;;;;20.03;61.53;101171.84;7408554;19;1471;-81
2022/05/12 12:09:52;;;;;;;;;;;;;;;20.04;61.96;101165.50;7405237;19;1665;-82
2022/05/12 12:12:50;;;;;;;;;;;;;;;19.99;61.67;101157.00;7405200;19;1483;-81
2022/05/12 12:15:34;;;;;;;;;;;;;;;19.97;61.91;101145.53;7403101;19;1370;-82
2022/05/12 12:18:28;;;;;;;;;;;;;;;19.97;61.52;101148.22;7404911;19;1837;-80
2022/05/12 12:21:03;;;;;;;;;;;;;;;19.98;61.61;101148.09;7406975;19;1690;-81
2022/05/12 12:23:35;;;;;;;;;;;;;;;19.96;61.46;101138.47;7406341;19;1472;-81
2022/05/12 12:26:05;;;;;;;;;;;;;;;19.98;61.95;101152.63;7405001;19;1535;-82
2022/05/12 12:28:36;;;;;;;;;;;;;;;19.95;61.56;101144.81;7405844;19;1483;-80
2022/05/12 12:31:07;;;;;;;;;;;;;;;19.94;61.84;101137.75;7407367;19;1400;-80
2022/05/12 12:33:57;;;;;;;;;;;;;;;19.96;61.40;101141.16;7407493;19;1571;-80
2022/05/12 12:36:41;;;;;;;;;;;;;;;19.96;61.72;101138.47;7407161;19;1864;-80
2022/05/12 12:39:13;;;;;;;;;;;;;;;19.92;61.71;101123.63;7404980;19;1483;-80
2022/05/12 12:41:43;;;;;;;;;;;;;;;19.96;61.88;101130.44;7405834;19;1792;-87
2022/05/12 12:44:18;;;;;;;;;;;;;;;19.93;61.80;101125.31;7406697;19;1661;-80
2022/05/12 12:46:49;;;;;;;;;;;;;;;19.92;61.58;101124.47;7407086;19;1359;-81
2022/05/12 12:49:21;;;;;;;;;;;;;;;19.93;61.91;101123.47;7406291;19;1486;-81
2022/05/12 12:51:55;;;;;;;;;;;;;;;19.95;61.91;101120.66;7406766;19;1586;-81
2022/05/12 12:57:10;;;;;;;;;;;;;;;19.91;61.70;101125.44;7405840;19;1849;-80
2022/05/12 12:59:43;;;;;;;;;;;;;;;19.92;61.91;101118.25;7407065;19;1241;-81
2022/05/12 13:02:25;;;;;;;;;;;;;;;19.97;62.02;101116.00;7404847;19;1640;-80
2022/05/12 13:04:55;;;;;;;;;;;;;;;19.93;61.84;101099.31;7406328;19;1462;-83
2022/05/12 13:07:27;;;;;;;;;;;;;;;19.95;61.70;101107.25;7406836;19;1456;-80
2022/05/12 13:09:59;;;;;;;;;;;;;;;19.94;61.63;101101.03;7406140;19;1558;-81
2022/05/12 13:12:31;;;;;;;;;;;;;;;19.92;61.57;101094.09;7406492;19;1558;-81
2022/05/12 13:15:00;;;;;;;;;;;;;;;19.92;61.60;101102.16;7400018;19;1598;-81
2022/05/12 13:17:30;;;;;;;;;;;;;;;19.93;61.29;101093.09;7404184;19;1856;-82
2022/05/12 13:20:01;;;;;;;;;;;;;;;19.91;61.42;101095.06;7414300;19;1521;-80
2022/05/12 13:22:39;;;;;;;;;;;;;;;19.91;61.89;101073.59;7420927;19;1458;-80
2022/05/12 13:25:11;;;;;;;;;;;;;;;19.92;61.70;101086.06;7407012;19;1727;-81
2022/05/12 13:27:40;;;;;;;;;;;;;;;19.93;61.94;101095.78;7406197;19;1553;-80
2022/05/12 13:30:16;;;;;;;;;;;;;;;19.93;61.83;101099.31;7403658;19;1579;-80
2022/05/12 13:32:47;;;;;;;;;;;;;;;19.91;61.99;101087.03;7404720;19;1235;-82
2022/05/12 13:35:20;;;;;;;;;;;;;;;19.96;62.03;101074.06;7402134;19;1539;-81
2022/05/12 13:37:55;;;;;;;;;;;;;;;19.96;61.73;101091.00;7404705;19;1862;-81
2022/05/12 13:40:39;;;;;;;;;;;;;;;19.97;61.68;101081.13;7406005;19;1727;-81
2022/05/12 13:43:14;;;;;;;;;;;;;;;19.93;61.94;101072.47;7403683;19;1451;-80